createdAt,value
2022-10-06T00:00:39.014Z,12.56
2022-10-06T00:03:05.427Z,12.52
2022-10-06T00:05:31.850Z,12.50
2022-10-06T00:07:58.940Z,12.50
2022-10-06T00:10:25.293Z,12.51
2022-10-06T00:12:52.337Z,12.50
2022-10-06T00:15:25.775Z,12.46
2022-10-06T00:17:52.267Z,12.43
2022-10-06T00:20:19.285Z,12.42
2022-10-06T00:22:48.285Z,12.38
2022-10-06T00:25:18.793Z,12.36
2022-10-06T00:27:47.814Z,12.37
2022-10-06T00:30:27.232Z,12.36
2022-10-06T00:33:03.085Z,12.33
2022-10-06T00:35:33.718Z,12.31
2022-10-06T00:38:01.820Z,12.27
2022-10-06T00:40:29.937Z,12.26
2022-10-06T00:43:04.951Z,12.23
2022-10-06T00:45:44.192Z,12.22
2022-10-06T00:48:23.007Z,12.17
2022-10-06T00:50:52.820Z,12.15
2022-10-06T00:53:20.907Z,12.10
2022-10-06T00:55:47.387Z,12.09
2022-10-06T00:58:14.807Z,12.06
2022-10-06T01:00:44.269Z,12.00
2022-10-06T01:03:17.398Z,11.95
2022-10-06T01:05:47.596Z,11.91
2022-10-06T01:08:16.003Z,11.84
2022-10-06T01:10:42.972Z,11.79
2022-10-06T01:13:11.376Z,11.78
2022-10-06T01:15:41.191Z,11.74
2022-10-06T01:18:13.875Z,11.72
2022-10-06T01:20:50.294Z,11.72
2022-10-06T01:23:17.542Z,11.70
2022-10-06T01:25:45.083Z,11.70
2022-10-06T01:28:13.044Z,11.69
2022-10-06T01:30:46.259Z,11.67
2022-10-06T01:33:12.697Z,11.64
2022-10-06T01:35:39.224Z,11.61
2022-10-06T01:38:07.821Z,11.58
2022-10-06T01:40:34.228Z,11.59
2022-10-06T01:43:00.555Z,11.57
2022-10-06T01:45:26.987Z,11.54
2022-10-06T01:47:53.351Z,11.52
2022-10-06T01:50:19.976Z,11.41
2022-10-06T01:52:46.636Z,11.35
2022-10-06T01:55:18.744Z,11.28
2022-10-06T01:57:45.399Z,11.21
2022-10-06T02:00:12.388Z,11.16
2022-10-06T02:02:38.959Z,11.16
2022-10-06T02:05:06.611Z,11.12
2022-10-06T02:07:35.411Z,11.08
2022-10-06T02:10:02.197Z,11.07
2022-10-06T02:12:31.824Z,11.03
2022-10-06T02:14:58.704Z,10.98
2022-10-06T02:17:25.179Z,10.98
2022-10-06T02:19:51.584Z,10.99
2022-10-06T02:22:18.192Z,11.00
2022-10-06T02:24:44.577Z,10.97
2022-10-06T02:27:15.471Z,10.93
2022-10-06T02:29:42.025Z,10.91
2022-10-06T02:32:08.534Z,10.86
2022-10-06T02:34:38.636Z,10.83
2022-10-06T02:37:05.345Z,10.82
2022-10-06T02:39:31.739Z,10.74
2022-10-06T02:41:58.251Z,10.67
2022-10-06T02:44:25.684Z,10.67
2022-10-06T02:46:53.666Z,10.69
2022-10-06T02:49:20.070Z,10.63
2022-10-06T02:51:46.747Z,10.62
2022-10-06T02:54:13.469Z,10.59
2022-10-06T02:56:40.016Z,10.52
2022-10-06T02:59:06.397Z,10.51
2022-10-06T03:01:33.025Z,10.52
2022-10-06T03:03:59.573Z,10.48
2022-10-06T03:06:31.002Z,10.43
2022-10-06T03:09:02.028Z,10.42
2022-10-06T03:11:31.332Z,10.41
2022-10-06T03:13:58.492Z,10.40
2022-10-06T03:16:44.524Z,10.31
2022-10-06T03:19:11.517Z,10.28
2022-10-06T03:21:40.663Z,10.27
2022-10-06T03:24:07.251Z,10.26
2022-10-06T03:26:36.156Z,10.24
2022-10-06T03:29:06.851Z,10.21
2022-10-06T03:31:36.011Z,10.19
2022-10-06T03:34:02.780Z,10.19
2022-10-06T03:36:34.634Z,10.15
2022-10-06T03:39:03.223Z,10.11
2022-10-06T03:41:32.129Z,10.07
2022-10-06T03:43:59.643Z,10.02
2022-10-06T03:46:31.777Z,9.98
2022-10-06T03:49:01.648Z,9.95
2022-10-06T03:51:31.264Z,9.94
2022-10-06T03:53:59.412Z,9.95
2022-10-06T03:56:30.985Z,9.94
2022-10-06T03:58:59.829Z,9.89
2022-10-06T04:01:29.472Z,9.89
2022-10-06T04:03:57.700Z,9.86
2022-10-06T04:06:25.417Z,9.90
2022-10-06T04:08:53.089Z,9.93
2022-10-06T04:11:21.552Z,9.93
2022-10-06T04:13:52.101Z,9.92
2022-10-06T04:16:26.708Z,9.88
2022-10-06T04:18:55.813Z,9.81
2022-10-06T04:21:23.395Z,9.76
2022-10-06T04:23:52.467Z,9.71
2022-10-06T04:26:20.585Z,9.68
2022-10-06T04:28:47.426Z,9.69
2022-10-06T04:31:19.236Z,9.70
2022-10-06T04:33:47.810Z,9.68
2022-10-06T04:36:17.141Z,9.65
2022-10-06T04:38:43.631Z,9.66
2022-10-06T04:41:15.629Z,9.64
2022-10-06T04:43:42.611Z,9.59
2022-10-06T04:46:37.708Z,9.55
2022-10-06T04:48:56.635Z,9.52
2022-10-06T04:51:25.649Z,9.52
2022-10-06T04:53:52.525Z,9.53
2022-10-06T04:56:25.961Z,9.54
2022-10-06T04:58:54.246Z,9.58
2022-10-06T05:01:31.753Z,9.58
2022-10-06T05:03:59.902Z,9.56
2022-10-06T05:06:38.627Z,9.52
2022-10-06T05:09:07.950Z,9.49
2022-10-06T05:11:34.459Z,9.46
2022-10-06T05:14:01.263Z,9.44
2022-10-06T05:16:29.287Z,9.43
2022-10-06T05:18:56.513Z,9.43
2022-10-06T05:21:25.921Z,9.38
2022-10-06T05:23:52.381Z,9.36
2022-10-06T05:26:21.991Z,9.34
2022-10-06T05:28:50.419Z,9.31
2022-10-06T05:31:21.142Z,9.24
2022-10-06T05:33:48.042Z,9.22
2022-10-06T05:36:19.386Z,9.25
2022-10-06T05:38:46.609Z,9.25
2022-10-06T05:41:18.373Z,9.25
2022-10-06T05:43:45.606Z,9.26
2022-10-06T05:46:17.699Z,9.24
2022-10-06T05:48:52.677Z,9.26
2022-10-06T05:51:20.718Z,9.30
2022-10-06T05:53:48.463Z,9.32
2022-10-06T05:56:20.260Z,9.33
2022-10-06T05:58:49.124Z,9.29
2022-10-06T06:01:24.587Z,9.27
2022-10-06T06:04:08.983Z,9.23
2022-10-06T06:06:41.563Z,9.23
2022-10-06T06:09:13.888Z,9.23
2022-10-06T06:11:43.327Z,9.22
2022-10-06T06:14:14.790Z,9.25
2022-10-06T06:16:42.467Z,9.27
2022-10-06T06:19:10.768Z,9.29
2022-10-06T06:21:37.962Z,9.33
2022-10-06T06:24:06.435Z,9.34
2022-10-06T06:26:37.061Z,9.38
2022-10-06T06:29:05.137Z,9.44
2022-10-06T06:31:38.411Z,9.51
2022-10-06T06:34:06.697Z,9.74
2022-10-06T06:36:40.855Z,9.84
2022-10-06T06:39:10.108Z,9.85
2022-10-06T06:41:40.489Z,9.89
2022-10-06T06:44:11.258Z,9.95
2022-10-06T06:46:38.717Z,10.08
2022-10-06T06:49:06.458Z,10.34
2022-10-06T06:51:37.731Z,10.63
2022-10-06T06:54:05.199Z,11.12
2022-10-06T06:56:34.749Z,11.44
2022-10-06T06:59:02.839Z,11.44
2022-10-06T07:01:29.253Z,11.58
2022-10-06T07:03:59.207Z,11.26
2022-10-06T07:06:28.915Z,11.12
2022-10-06T07:08:59.802Z,11.16
2022-10-06T07:11:31.833Z,11.72
2022-10-06T07:14:01.560Z,12.98
2022-10-06T07:16:48.857Z,13.84
2022-10-06T07:19:36.158Z,14.36
2022-10-06T07:22:27.357Z,13.26
2022-10-06T07:25:07.756Z,13.85
2022-10-06T07:27:38.575Z,14.27
2022-10-06T07:30:05.814Z,14.92
2022-10-06T07:32:32.372Z,15.81
2022-10-06T07:34:59.311Z,18.23
2022-10-06T07:37:25.746Z,18.92
2022-10-06T07:39:52.133Z,18.32
2022-10-06T07:42:19.041Z,17.65
2022-10-06T07:45:05.163Z,18.74
2022-10-06T07:47:33.036Z,21.57
2022-10-06T07:49:59.541Z,23.20
2022-10-06T07:52:28.792Z,24.31
2022-10-06T07:54:56.720Z,25.31
2022-10-06T07:57:23.445Z,25.97
2022-10-06T07:59:50.767Z,25.83
2022-10-06T08:02:19.068Z,25.83
2022-10-06T08:04:45.596Z,25.47
2022-10-06T08:07:12.574Z,25.33
2022-10-06T08:09:41.691Z,24.78
2022-10-06T08:12:28.041Z,24.07
2022-10-06T08:14:54.830Z,23.20
2022-10-06T08:17:21.631Z,22.56
2022-10-06T08:19:48.227Z,22.19
2022-10-06T08:22:16.077Z,22.98
2022-10-06T08:25:04.207Z,24.34
2022-10-06T08:27:29.441Z,24.54
2022-10-06T08:29:59.020Z,25.65
2022-10-06T08:32:25.653Z,26.00
2022-10-06T08:34:52.551Z,25.66
2022-10-06T08:37:23.871Z,24.80
2022-10-06T08:39:54.656Z,24.39
2022-10-06T08:43:01.099Z,23.89
2022-10-06T08:45:38.758Z,23.33
2022-10-06T08:48:11.344Z,23.06
2022-10-06T08:50:52.240Z,22.31
2022-10-06T08:53:35.856Z,22.83
2022-10-06T08:56:18.589Z,23.43
2022-10-06T08:58:54.546Z,24.64
2022-10-06T09:01:33.168Z,25.04
2022-10-06T09:04:03.635Z,25.43
2022-10-06T09:07:06.597Z,25.68
2022-10-06T09:09:45.995Z,26.02
2022-10-06T09:12:27.405Z,25.57
2022-10-06T09:15:03.177Z,25.89
2022-10-06T09:17:35.214Z,24.84
2022-10-06T09:20:06.475Z,23.00
2022-10-06T09:22:33.038Z,21.98
2022-10-06T09:25:28.001Z,20.72
2022-10-06T09:27:56.890Z,21.45
2022-10-06T09:30:24.525Z,21.34
2022-10-06T09:33:02.681Z,21.34
2022-10-06T09:35:31.858Z,21.04
2022-10-06T09:38:09.047Z,20.44
2022-10-06T09:40:51.304Z,19.37
2022-10-06T09:43:26.231Z,18.67
2022-10-06T09:45:54.895Z,18.23
2022-10-06T09:48:25.136Z,17.80
2022-10-06T09:51:08.737Z,17.60
2022-10-06T09:53:37.723Z,17.55
2022-10-06T09:56:09.555Z,17.42
2022-10-06T09:58:39.086Z,17.26
2022-10-06T10:01:12.306Z,17.19
2022-10-06T10:04:15.495Z,17.21
2022-10-06T10:06:39.133Z,17.13
2022-10-06T10:09:22.437Z,17.15
2022-10-06T10:12:42.856Z,17.16
2022-10-06T10:15:12.244Z,17.10
2022-10-06T10:18:03.183Z,16.99
2022-10-06T10:20:38.913Z,16.80
2022-10-06T10:23:20.702Z,16.60
2022-10-06T10:25:56.248Z,16.63
2022-10-06T10:29:01.088Z,16.56
2022-10-06T10:31:41.386Z,16.34
2022-10-06T10:34:31.292Z,16.21
2022-10-06T10:37:04.360Z,16.17
2022-10-06T10:39:48.327Z,16.15
2022-10-06T10:42:22.016Z,16.21
2022-10-06T10:44:56.611Z,16.39
2022-10-06T10:47:29.916Z,16.62
2022-10-06T10:50:12.857Z,16.86
2022-10-06T10:52:44.845Z,17.08
2022-10-06T10:55:26.744Z,17.10
2022-10-06T10:57:57.283Z,16.98
2022-10-06T11:00:28.473Z,17.10
2022-10-06T11:02:58.942Z,17.32
2022-10-06T11:05:47.257Z,18.14
2022-10-06T11:08:24.965Z,18.26
2022-10-06T11:10:57.505Z,18.50
2022-10-06T11:13:40.100Z,17.89
2022-10-06T11:16:22.690Z,17.16
2022-10-06T11:18:54.956Z,17.01
2022-10-06T11:21:36.612Z,17.18
2022-10-06T11:24:31.694Z,17.61
2022-10-06T11:27:27.592Z,17.85
2022-10-06T11:30:15.467Z,17.93
2022-10-06T11:33:13.738Z,18.10
2022-10-06T11:35:44.384Z,18.31
2022-10-06T11:38:18.060Z,18.74
2022-10-06T11:40:51.660Z,18.72
2022-10-06T11:43:41.088Z,18.33
2022-10-06T11:46:13.313Z,18.08
2022-10-06T11:48:40.616Z,17.95
2022-10-06T11:51:25.429Z,17.87
2022-10-06T11:53:52.809Z,17.95
2022-10-06T11:56:19.254Z,17.95
2022-10-06T11:58:51.779Z,18.06
2022-10-06T12:01:33.731Z,18.04
2022-10-06T12:04:09.131Z,17.97
2022-10-06T12:06:41.746Z,17.99
2022-10-06T12:09:26.202Z,18.03
2022-10-06T12:11:58.191Z,17.96
2022-10-06T12:17:47.897Z,18.21
2022-10-06T12:20:34.833Z,18.17
2022-10-06T12:23:20.252Z,18.32
2022-10-06T12:25:54.264Z,18.27
2022-10-06T12:28:36.397Z,18.04
2022-10-06T12:31:05.982Z,17.90
2022-10-06T12:33:41.059Z,17.83
2022-10-06T12:36:33.769Z,17.61
2022-10-06T12:39:23.993Z,17.39
2022-10-06T12:42:01.026Z,17.38
2022-10-06T12:44:51.607Z,17.19
2022-10-06T12:47:29.389Z,17.10
2022-10-06T12:49:59.324Z,17.12
2022-10-06T12:52:49.587Z,17.09
2022-10-06T12:55:52.688Z,17.01
2022-10-06T12:58:26.271Z,17.22
2022-10-06T13:00:53.483Z,17.30
2022-10-06T13:03:24.956Z,17.35
2022-10-06T13:05:55.055Z,17.46
2022-10-06T13:08:28.031Z,17.37
2022-10-06T13:11:15.920Z,17.33
2022-10-06T13:13:56.561Z,17.34
2022-10-06T13:16:26.798Z,17.39
2022-10-06T13:18:58.287Z,17.41
2022-10-06T13:21:24.880Z,17.43
2022-10-06T13:23:52.298Z,17.36
2022-10-06T13:26:23.348Z,17.42
2022-10-06T13:28:54.297Z,17.51
2022-10-06T13:31:30.417Z,17.60
2022-10-06T13:34:10.748Z,17.65
2022-10-06T13:36:42.934Z,17.70
2022-10-06T13:39:18.168Z,17.83
2022-10-06T13:41:50.974Z,17.86
2022-10-06T13:44:34.808Z,17.71
2022-10-06T13:47:20.089Z,17.52
2022-10-06T13:50:06.478Z,17.53
2022-10-06T13:52:48.198Z,17.63
2022-10-06T13:55:20.895Z,17.82
2022-10-06T13:58:06.531Z,17.80
2022-10-06T14:00:56.425Z,17.85
2022-10-06T14:03:25.714Z,17.79
2022-10-06T14:06:18.096Z,17.81
2022-10-06T14:08:54.194Z,17.76
2022-10-06T14:11:27.299Z,17.82
2022-10-06T14:13:57.617Z,17.84
2022-10-06T14:16:26.387Z,17.84
2022-10-06T14:19:04.314Z,17.87
2022-10-06T14:21:41.504Z,18.06
2022-10-06T14:24:17.033Z,17.98
2022-10-06T14:26:45.529Z,17.88
2022-10-06T14:29:15.764Z,17.94
2022-10-06T14:31:43.985Z,17.87
2022-10-06T14:34:17.063Z,17.63
2022-10-06T14:36:51.578Z,17.47
2022-10-06T14:39:18.477Z,17.46
2022-10-06T14:41:45.902Z,17.41
2022-10-06T14:44:13.121Z,17.36
2022-10-06T14:46:41.664Z,17.39
2022-10-06T14:49:10.341Z,17.40
2022-10-06T14:51:38.545Z,17.54
2022-10-06T14:54:06.408Z,17.63
2022-10-06T14:56:34.612Z,17.57
2022-10-06T14:59:05.403Z,17.53
2022-10-06T15:01:34.474Z,17.37
2022-10-06T15:04:06.595Z,17.24
2022-10-06T15:06:51.773Z,17.19
2022-10-06T15:09:18.360Z,17.16
2022-10-06T15:11:45.315Z,17.16
2022-10-06T15:14:11.926Z,17.19
2022-10-06T15:16:43.888Z,17.24
2022-10-06T15:19:12.118Z,17.18
2022-10-06T15:21:46.372Z,17.18
2022-10-06T15:24:15.387Z,17.05
2022-10-06T15:27:01.456Z,16.96
2022-10-06T15:29:28.782Z,16.93
2022-10-06T15:31:55.818Z,16.88
2022-10-06T15:34:25.492Z,16.79
2022-10-06T15:36:53.508Z,16.74
2022-10-06T15:39:22.242Z,16.60
2022-10-06T15:41:49.464Z,16.50
2022-10-06T15:44:16.882Z,16.47
2022-10-06T15:46:54.517Z,16.49
2022-10-06T15:49:22.192Z,16.38
2022-10-06T15:51:51.370Z,16.32
2022-10-06T15:54:20.588Z,16.26
2022-10-06T15:56:48.846Z,16.22
2022-10-06T15:59:16.461Z,16.15
2022-10-06T16:01:47.705Z,16.04
2022-10-06T16:04:31.922Z,15.86
2022-10-06T16:06:59.044Z,15.75
2022-10-06T16:09:46.909Z,15.70
2022-10-06T16:12:19.288Z,15.58
2022-10-06T16:14:45.915Z,15.48
2022-10-06T16:17:13.064Z,15.37
2022-10-06T16:19:42.857Z,15.30
2022-10-06T16:22:16.127Z,15.20
2022-10-06T16:24:42.826Z,15.06
2022-10-06T16:27:14.024Z,15.07
2022-10-06T16:29:40.654Z,15.03
2022-10-06T16:32:07.060Z,14.94
2022-10-06T16:34:33.605Z,14.87
2022-10-06T16:37:00.193Z,14.82
2022-10-06T16:39:26.848Z,14.76
2022-10-06T16:41:54.201Z,14.68
2022-10-06T16:44:20.691Z,14.58
2022-10-06T16:46:47.264Z,14.43
2022-10-06T16:49:13.932Z,14.27
2022-10-06T16:51:43.285Z,14.21
2022-10-06T16:54:12.021Z,14.10
2022-10-06T16:56:41.069Z,13.99
2022-10-06T16:59:15.748Z,13.85
2022-10-06T17:01:45.886Z,13.80
2022-10-06T17:04:18.053Z,13.82
2022-10-06T17:06:49.945Z,13.78
2022-10-06T17:09:19.636Z,13.69
2022-10-06T17:11:49.264Z,13.58
2022-10-06T17:14:16.388Z,13.48
2022-10-06T17:16:44.487Z,13.42
2022-10-06T17:19:12.938Z,13.39
2022-10-06T17:21:46.121Z,13.32
2022-10-06T17:24:13.780Z,13.29
2022-10-06T17:26:42.339Z,13.21
2022-10-06T17:29:13.939Z,13.12
2022-10-06T17:31:42.903Z,13.03
2022-10-06T17:34:12.369Z,12.96
2022-10-06T17:36:46.719Z,12.90
2022-10-06T17:39:14.016Z,12.84
2022-10-06T17:41:42.346Z,12.75
2022-10-06T17:44:13.429Z,12.69
2022-10-06T17:46:48.364Z,12.62
2022-10-06T17:49:16.464Z,12.53
2022-10-06T17:51:48.114Z,12.46
2022-10-06T17:54:18.862Z,12.44
2022-10-06T17:56:47.065Z,12.36
2022-10-06T17:59:20.112Z,12.29
2022-10-06T18:01:46.605Z,12.24
2022-10-06T18:04:19.069Z,12.19
2022-10-06T18:06:46.910Z,12.14
2022-10-06T18:09:14.767Z,12.09
2022-10-06T18:11:44.072Z,12.06
2022-10-06T18:14:16.537Z,12.02
2022-10-06T18:16:50.897Z,11.96
2022-10-06T18:19:26.253Z,11.86
2022-10-06T18:21:54.758Z,11.81
2022-10-06T18:24:23.621Z,11.72
2022-10-06T18:26:52.155Z,11.67
2022-10-06T18:29:21.929Z,11.62
2022-10-06T18:31:50.539Z,11.57
2022-10-06T18:37:04.619Z,11.48
2022-10-06T18:39:32.115Z,11.44
2022-10-06T18:42:02.378Z,11.38
2022-10-06T18:44:48.057Z,11.31
2022-10-06T18:47:32.983Z,11.23
2022-10-06T18:50:01.681Z,11.19
2022-10-06T18:52:28.872Z,11.13
2022-10-06T18:54:57.368Z,11.09
2022-10-06T18:57:27.629Z,11.06
2022-10-06T18:59:55.146Z,11.02
2022-10-06T19:02:21.760Z,10.96
2022-10-06T19:04:48.564Z,10.94
2022-10-06T19:07:15.166Z,10.92
2022-10-06T19:09:46.124Z,10.89
2022-10-06T19:12:14.404Z,10.82
2022-10-06T19:14:47.082Z,10.79
2022-10-06T19:17:15.198Z,10.75
2022-10-06T19:19:51.503Z,10.66
2022-10-06T19:22:24.643Z,10.56
2022-10-06T19:24:51.517Z,10.48
2022-10-06T19:27:23.855Z,10.40
2022-10-06T19:29:54.248Z,10.37
2022-10-06T19:32:23.958Z,10.34
2022-10-06T19:34:50.447Z,10.30
2022-10-06T19:37:17.052Z,10.23
2022-10-06T19:39:46.812Z,10.16
2022-10-06T19:42:34.353Z,10.18
2022-10-06T19:45:01.267Z,10.18
2022-10-06T19:47:28.932Z,10.17
2022-10-06T19:50:00.855Z,10.15
2022-10-06T19:52:31.135Z,10.09
2022-10-06T19:54:57.604Z,10.07
2022-10-06T19:57:23.988Z,10.03
2022-10-06T19:59:50.917Z,9.98
2022-10-06T20:02:17.381Z,9.93
2022-10-06T20:04:45.325Z,9.86
2022-10-06T20:07:12.566Z,9.76
2022-10-06T20:09:38.955Z,9.68
2022-10-06T20:12:05.899Z,9.66
2022-10-06T20:14:32.733Z,9.68
2022-10-06T20:16:59.250Z,9.66
2022-10-06T20:19:25.859Z,9.62
2022-10-06T20:21:53.120Z,9.61
2022-10-06T20:24:24.933Z,9.56
2022-10-06T20:26:53.322Z,9.51
2022-10-06T20:29:23.151Z,9.39
2022-10-06T20:31:53.004Z,9.31
2022-10-06T20:34:21.952Z,9.34
2022-10-06T20:36:53.104Z,9.40
2022-10-06T20:39:41.307Z,9.40
2022-10-06T20:42:13.651Z,9.43
2022-10-06T20:44:41.275Z,9.35
2022-10-06T20:47:08.889Z,9.33
2022-10-06T20:49:35.463Z,9.33
2022-10-06T20:52:03.330Z,9.34
2022-10-06T20:54:36.039Z,9.37
2022-10-06T20:57:05.010Z,9.36
2022-10-06T20:59:35.605Z,9.34
2022-10-06T21:02:03.288Z,9.34
2022-10-06T21:04:30.287Z,9.36
2022-10-06T21:06:57.511Z,9.25
2022-10-06T21:09:28.490Z,9.17
2022-10-06T21:11:56.493Z,9.14
2022-10-06T21:14:23.136Z,9.06
2022-10-06T21:16:51.839Z,9.04
2022-10-06T21:19:19.499Z,9.08
2022-10-06T21:21:52.370Z,9.09
2022-10-06T21:24:19.339Z,9.10
2022-10-06T21:26:45.983Z,9.08
2022-10-06T21:29:16.348Z,9.05
2022-10-06T21:31:44.181Z,9.01
2022-10-06T21:34:10.838Z,9.01
2022-10-06T21:36:37.506Z,8.96
2022-10-06T21:39:05.866Z,8.83
2022-10-06T21:41:38.485Z,8.83
2022-10-06T21:44:13.135Z,8.86
2022-10-06T21:46:42.502Z,8.83
2022-10-06T21:49:14.401Z,8.74
2022-10-06T21:51:45.771Z,8.68
2022-10-06T21:54:13.462Z,8.69
2022-10-06T21:56:40.057Z,8.65
2022-10-06T21:59:07.122Z,8.59
2022-10-06T22:01:41.827Z,8.47
2022-10-06T22:04:09.039Z,8.45
2022-10-06T22:06:37.564Z,8.35
2022-10-06T22:09:06.250Z,8.31
2022-10-06T22:11:39.455Z,8.27
2022-10-06T22:14:08.853Z,8.31
2022-10-06T22:16:36.754Z,8.37
2022-10-06T22:19:05.097Z,8.43
2022-10-06T22:21:34.500Z,8.39
2022-10-06T22:24:04.185Z,8.33
2022-10-06T22:26:33.720Z,8.36
2022-10-06T22:29:00.673Z,8.39
2022-10-06T22:31:28.228Z,8.39
2022-10-06T22:33:57.195Z,8.35
2022-10-06T22:36:24.877Z,8.31
2022-10-06T22:38:52.159Z,8.29
2022-10-06T22:41:18.992Z,8.30
2022-10-06T22:43:45.835Z,8.28
2022-10-06T22:46:13.497Z,8.28
2022-10-06T22:48:40.575Z,8.29
2022-10-06T22:51:07.427Z,8.28
2022-10-06T22:53:33.962Z,8.22
2022-10-06T22:56:01.826Z,8.22
2022-10-06T22:58:28.491Z,8.22
2022-10-06T23:00:55.628Z,8.23
2022-10-06T23:03:23.010Z,8.24
2022-10-06T23:06:00.474Z,8.24
2022-10-06T23:08:32.700Z,8.26
2022-10-06T23:11:22.796Z,8.30
2022-10-06T23:13:50.641Z,8.34
2022-10-06T23:16:18.671Z,8.35
2022-10-06T23:18:45.229Z,8.37
2022-10-06T23:21:11.557Z,8.39
2022-10-06T23:23:37.878Z,8.33
2022-10-06T23:26:12.746Z,8.33
2022-10-06T23:28:40.005Z,8.33
2022-10-06T23:31:08.487Z,8.32
2022-10-06T23:33:35.019Z,8.32
2022-10-06T23:36:04.401Z,8.32
2022-10-06T23:38:30.782Z,8.33
2022-10-06T23:40:57.440Z,8.32
2022-10-06T23:43:24.401Z,8.30
2022-10-06T23:45:51.126Z,8.27
2022-10-06T23:48:17.536Z,8.26
2022-10-06T23:50:55.278Z,8.29
2022-10-06T23:53:21.801Z,8.28
2022-10-06T23:55:48.126Z,8.28
2022-10-06T23:58:14.766Z,8.28
